createdAt,value
2023-10-14T00:00:48.670Z,1.00
2023-10-14T00:04:59.277Z,1.00
2023-10-14T00:09:14.816Z,1.00
2023-10-14T00:13:23.706Z,1.00
2023-10-14T00:17:34.046Z,1.00
2023-10-14T00:21:43.932Z,1.00
2023-10-14T00:25:52.628Z,1.00
2023-10-14T00:30:08.870Z,1.00
2023-10-14T00:34:19.732Z,1.00
2023-10-14T00:38:28.802Z,1.00
2023-10-14T00:42:37.365Z,1.00
2023-10-14T00:46:50.257Z,1.00
2023-10-14T00:51:01.123Z,1.00
2023-10-14T00:55:11.501Z,1.00
2023-10-14T00:59:20.861Z,1.00
2023-10-14T01:03:35.583Z,1.00
2023-10-14T01:07:44.259Z,99.90
2023-10-14T01:12:21.437Z,1.00
2023-10-14T01:16:31.763Z,99.90
2023-10-14T01:20:40.424Z,99.90
2023-10-14T01:24:50.141Z,1.00
2023-10-14T01:29:01.950Z,99.90
2023-10-14T01:33:15.280Z,99.90
2023-10-14T01:37:26.496Z,99.90
2023-10-14T01:41:36.108Z,1.00
2023-10-14T01:45:51.689Z,1.00
2023-10-14T01:50:01.382Z,1.00
2023-10-14T01:54:11.552Z,14.00
2023-10-14T01:58:24.540Z,1.00
2023-10-14T02:02:34.831Z,1.00
2023-10-14T02:06:45.321Z,1.00
2023-10-14T02:10:55.322Z,1.00
2023-10-14T02:15:04.698Z,1.00
2023-10-14T02:19:25.414Z,1.00
2023-10-14T02:23:51.019Z,1.00
2023-10-14T02:27:59.808Z,1.00
2023-10-14T02:32:10.089Z,1.00
2023-10-14T02:36:19.178Z,27.80
2023-10-14T02:40:27.864Z,1.00
2023-10-14T02:44:50.631Z,1.00
2023-10-14T02:49:01.023Z,99.90
2023-10-14T02:53:30.004Z,1.00
2023-10-14T02:57:39.114Z,1.00
2023-10-14T03:01:56.045Z,1.00
2023-10-14T03:06:11.878Z,1.00
2023-10-14T03:10:22.225Z,1.00
2023-10-14T03:14:31.213Z,1.00
2023-10-14T03:18:39.910Z,1.00
2023-10-14T03:22:48.586Z,1.00
2023-10-14T03:27:01.726Z,99.90
2023-10-14T03:31:12.062Z,99.90
2023-10-14T03:35:22.355Z,1.00
2023-10-14T03:39:41.886Z,1.00
2023-10-14T03:48:17.470Z,1.00
2023-10-14T03:52:46.098Z,1.00
2023-10-14T03:56:56.266Z,1.00
2023-10-14T04:01:04.966Z,1.00
2023-10-14T04:05:13.861Z,1.00
2023-10-14T04:09:27.517Z,99.90
2023-10-14T04:13:36.878Z,99.90
2023-10-14T04:17:47.063Z,1.00
2023-10-14T04:22:04.771Z,1.00
2023-10-14T04:26:13.396Z,1.00
2023-10-14T04:30:28.187Z,99.90
2023-10-14T04:34:36.800Z,99.90
2023-10-14T04:38:45.405Z,99.90
2023-10-14T04:43:21.649Z,99.90
2023-10-14T04:47:39.787Z,99.90
2023-10-14T04:51:48.636Z,99.90
2023-10-14T04:55:57.250Z,97.00
2023-10-14T05:00:08.096Z,8.50
2023-10-14T05:04:18.425Z,54.50
2023-10-14T05:08:31.885Z,94.90
2023-10-14T05:12:44.667Z,6.20
2023-10-14T05:16:54.658Z,42.60
2023-10-14T05:21:17.267Z,99.90
2023-10-14T05:25:32.014Z,99.90
2023-10-14T05:29:40.699Z,99.90
2023-10-14T05:33:50.038Z,99.90
2023-10-14T05:37:58.726Z,30.90
2023-10-14T05:42:18.633Z,9.10
2023-10-14T05:46:27.625Z,83.60
2023-10-14T05:50:39.539Z,26.00
2023-10-14T05:54:49.715Z,44.00
2023-10-14T05:58:58.692Z,29.30
2023-10-14T06:03:09.013Z,29.40
2023-10-14T06:07:19.514Z,90.30
2023-10-14T06:11:28.328Z,7.80
2023-10-14T06:15:45.180Z,1.00
2023-10-14T06:19:54.629Z,1.00
2023-10-14T06:24:05.019Z,5.30
2023-10-14T06:28:14.004Z,32.40
2023-10-14T06:32:22.735Z,53.40
2023-10-14T06:36:31.562Z,1.00
2023-10-14T06:40:42.383Z,99.90
2023-10-14T06:44:53.083Z,1.00
2023-10-14T06:49:01.704Z,18.60
2023-10-14T06:53:10.822Z,99.90
2023-10-14T06:57:19.453Z,45.80
2023-10-14T07:01:29.791Z,13.40
2023-10-14T07:05:40.150Z,1.00
2023-10-14T07:09:49.127Z,1.00
2023-10-14T07:13:58.263Z,1.60
2023-10-14T07:18:09.231Z,1.00
2023-10-14T07:22:19.843Z,1.00
2023-10-14T07:26:30.062Z,1.00
2023-10-14T07:30:39.720Z,1.00
2023-10-14T07:34:49.986Z,1.00
2023-10-14T07:39:00.230Z,1.00
2023-10-14T07:43:13.002Z,1.00
2023-10-14T07:47:22.814Z,1.00
2023-10-14T07:51:31.676Z,1.00
2023-10-14T07:55:44.542Z,1.00
2023-10-14T07:59:54.783Z,1.00
2023-10-14T08:04:05.289Z,1.00
2023-10-14T08:08:14.714Z,1.00
2023-10-14T08:12:23.427Z,1.00
2023-10-14T08:16:32.282Z,1.00
2023-10-14T08:20:42.728Z,1.00
2023-10-14T08:24:51.822Z,1.00
2023-10-14T08:29:01.575Z,1.00
2023-10-14T08:33:10.358Z,1.00
2023-10-14T08:37:18.954Z,1.00
2023-10-14T08:41:30.628Z,1.00
2023-10-14T08:45:43.671Z,1.00
2023-10-14T08:49:53.151Z,1.00
2023-10-14T08:54:04.962Z,1.00
2023-10-14T08:58:16.057Z,1.00
2023-10-14T09:02:26.364Z,1.00
2023-10-14T09:06:35.430Z,1.00
2023-10-14T09:10:45.254Z,1.00
2023-10-14T09:14:57.111Z,1.00
2023-10-14T09:19:06.380Z,1.00
2023-10-14T09:23:31.404Z,1.00
2023-10-14T09:27:41.619Z,1.00
2023-10-14T09:31:51.998Z,1.00
2023-10-14T09:36:07.145Z,1.00
2023-10-14T09:40:15.988Z,1.00
2023-10-14T09:44:26.376Z,1.00
2023-10-14T09:48:35.952Z,1.00
2023-10-14T09:52:45.307Z,1.00
2023-10-14T09:56:55.116Z,1.00
2023-10-14T10:01:06.385Z,1.00
2023-10-14T10:05:18.252Z,1.00
2023-10-14T10:09:29.914Z,1.00
2023-10-14T10:13:40.109Z,1.00
2023-10-14T10:18:00.399Z,1.00
2023-10-14T10:22:18.295Z,1.00
2023-10-14T10:26:27.309Z,99.90
2023-10-14T10:30:38.990Z,99.90
2023-10-14T10:35:11.954Z,1.00
2023-10-14T10:39:21.176Z,99.90
2023-10-14T10:43:31.986Z,99.90
2023-10-14T10:47:49.051Z,99.90
2023-10-14T10:52:14.398Z,99.90
2023-10-14T10:56:23.517Z,99.90
2023-10-14T11:00:32.982Z,99.90
2023-10-14T11:04:43.889Z,99.90
2023-10-14T11:08:52.500Z,99.90
2023-10-14T11:13:01.534Z,99.90
2023-10-14T11:17:10.166Z,99.90
2023-10-14T11:21:19.518Z,99.90
2023-10-14T11:25:31.877Z,99.90
2023-10-14T11:29:42.601Z,99.90
2023-10-14T11:33:51.215Z,99.90
2023-10-14T11:38:07.606Z,99.90
2023-10-14T11:42:16.257Z,99.90
2023-10-14T11:46:26.810Z,99.90
2023-10-14T11:50:38.130Z,99.90
2023-10-14T11:54:47.021Z,99.90
2023-10-14T11:58:55.679Z,99.90
2023-10-14T12:03:04.589Z,99.90
2023-10-14T12:07:13.415Z,99.90
2023-10-14T12:11:23.033Z,99.90
2023-10-14T12:15:34.060Z,99.90
2023-10-14T12:19:42.624Z,99.90
2023-10-14T12:23:52.878Z,99.90
2023-10-14T12:28:01.625Z,99.90
2023-10-14T12:32:18.233Z,99.90
2023-10-14T12:36:23.788Z,99.90
2023-10-14T12:40:34.271Z,99.90
2023-10-14T12:44:42.976Z,99.90
2023-10-14T12:48:52.505Z,99.90
2023-10-14T12:53:02.927Z,99.90
2023-10-14T12:57:13.032Z,99.90
2023-10-14T13:01:22.391Z,99.90
2023-10-14T13:05:31.977Z,99.90
2023-10-14T13:09:41.723Z,99.90
2023-10-14T13:13:53.745Z,99.90
2023-10-14T13:18:06.576Z,99.90
2023-10-14T13:22:16.808Z,99.90
2023-10-14T13:26:25.747Z,99.90
2023-10-14T13:30:34.411Z,99.90
2023-10-14T13:34:43.091Z,99.90
2023-10-14T13:38:51.672Z,99.90
2023-10-14T13:43:01.971Z,99.90
2023-10-14T13:47:10.675Z,99.90
2023-10-14T13:51:21.053Z,99.90
2023-10-14T13:55:31.676Z,99.90
2023-10-14T13:59:40.223Z,99.90
2023-10-14T14:03:59.952Z,99.90
2023-10-14T14:08:10.089Z,99.90
2023-10-14T14:12:18.761Z,99.90
2023-10-14T14:16:27.574Z,99.90
2023-10-14T14:20:36.847Z,99.90
2023-10-14T14:24:46.897Z,99.90
2023-10-14T14:28:57.177Z,99.90
2023-10-14T14:33:10.510Z,99.90
2023-10-14T14:37:19.249Z,99.90
2023-10-14T14:41:27.913Z,99.90
2023-10-14T14:45:36.882Z,99.90
2023-10-14T14:49:46.947Z,99.90
2023-10-14T14:54:16.488Z,99.90
2023-10-14T14:58:25.819Z,99.90
2023-10-14T15:02:36.080Z,99.90
2023-10-14T15:06:51.955Z,99.90
2023-10-14T15:11:00.952Z,99.90
2023-10-14T15:15:11.183Z,99.90
2023-10-14T15:19:20.529Z,99.90
2023-10-14T15:23:29.275Z,99.90
2023-10-14T15:27:37.896Z,99.90
2023-10-14T15:31:47.635Z,99.90
2023-10-14T15:35:59.668Z,99.90
2023-10-14T15:40:29.344Z,99.90
2023-10-14T15:44:38.206Z,99.90
2023-10-14T15:48:48.483Z,99.90
2023-10-14T15:52:58.416Z,99.90
2023-10-14T15:57:08.658Z,99.90
2023-10-14T16:01:18.342Z,99.90
2023-10-14T16:05:27.516Z,99.90
2023-10-14T16:09:36.895Z,99.90
2023-10-14T16:13:45.555Z,99.90
2023-10-14T16:17:56.172Z,99.90
2023-10-14T16:22:04.863Z,99.90
2023-10-14T16:26:13.444Z,99.90
2023-10-14T16:30:25.357Z,99.90
2023-10-14T16:34:35.095Z,99.90
2023-10-14T16:38:44.794Z,99.90
2023-10-14T16:42:55.504Z,99.90
2023-10-14T16:47:05.755Z,99.90
2023-10-14T16:51:15.492Z,99.90
2023-10-14T16:55:24.693Z,99.90
2023-10-14T16:59:33.415Z,99.90
2023-10-14T17:03:42.051Z,99.90
2023-10-14T17:07:52.382Z,99.90
2023-10-14T17:12:01.048Z,99.90
2023-10-14T17:16:33.265Z,99.90
2023-10-14T17:20:42.578Z,99.90
2023-10-14T17:24:52.958Z,99.90
2023-10-14T17:29:01.974Z,99.90
2023-10-14T17:33:10.719Z,1.00
2023-10-14T17:37:21.170Z,1.00
2023-10-14T17:41:30.222Z,1.00
2023-10-14T17:45:44.626Z,1.00
2023-10-14T17:49:53.502Z,1.00
2023-10-14T17:54:02.138Z,1.00
2023-10-14T17:58:12.068Z,1.00
2023-10-14T18:02:21.717Z,1.00
2023-10-14T18:06:31.939Z,1.00
2023-10-14T18:10:41.621Z,1.00
2023-10-14T18:14:50.387Z,1.00
2023-10-14T18:18:59.014Z,1.00
2023-10-14T18:23:08.808Z,1.00
2023-10-14T18:27:18.799Z,1.00
2023-10-14T18:31:27.738Z,1.00
2023-10-14T18:35:39.629Z,1.00
2023-10-14T18:39:48.544Z,1.00
2023-10-14T18:43:57.620Z,1.00
2023-10-14T18:48:12.754Z,1.00
2023-10-14T18:52:42.171Z,1.00
2023-10-14T18:56:52.400Z,1.00
2023-10-14T19:01:01.174Z,1.00
2023-10-14T19:05:10.084Z,1.00
2023-10-14T19:09:32.118Z,1.00
2023-10-14T19:13:40.852Z,1.00
2023-10-14T19:17:49.968Z,1.00
2023-10-14T19:21:58.681Z,1.00
2023-10-14T19:26:28.309Z,1.00
2023-10-14T19:30:37.755Z,1.00
2023-10-14T19:34:46.402Z,1.00
2023-10-14T19:38:54.982Z,1.00
2023-10-14T19:43:03.862Z,1.00
2023-10-14T19:47:12.523Z,1.00
2023-10-14T19:51:22.397Z,1.00
2023-10-14T19:55:33.099Z,1.00
2023-10-14T19:59:42.136Z,1.00
2023-10-14T20:03:52.094Z,1.00
2023-10-14T20:08:02.482Z,1.00
2023-10-14T20:12:11.144Z,1.00
2023-10-14T20:16:20.005Z,1.00
2023-10-14T20:20:29.128Z,1.00
2023-10-14T20:24:37.723Z,1.00
2023-10-14T20:28:47.391Z,1.00
2023-10-14T20:33:00.537Z,1.00
2023-10-14T20:37:10.844Z,1.00
2023-10-14T20:41:19.430Z,1.00
2023-10-14T20:45:29.785Z,1.00
2023-10-14T20:49:38.408Z,1.00
2023-10-14T20:53:47.152Z,1.00
2023-10-14T20:57:57.703Z,1.00
2023-10-14T21:02:07.784Z,1.00
2023-10-14T21:06:16.527Z,1.00
2023-10-14T21:10:46.098Z,1.00
2023-10-14T21:14:56.941Z,1.00
2023-10-14T21:19:06.315Z,1.00
2023-10-14T21:23:20.355Z,1.00
2023-10-14T21:27:29.594Z,1.00
2023-10-14T21:31:39.893Z,1.00
2023-10-14T21:35:48.902Z,1.00
2023-10-14T21:39:58.246Z,1.00
2023-10-14T21:44:07.335Z,1.00
2023-10-14T21:48:16.069Z,1.00
2023-10-14T21:52:25.473Z,1.00
2023-10-14T21:56:34.054Z,1.00
2023-10-14T22:00:44.452Z,1.00
2023-10-14T22:04:53.037Z,1.00
2023-10-14T22:09:03.460Z,1.00
2023-10-14T22:13:12.405Z,1.00
2023-10-14T22:17:21.664Z,1.00
2023-10-14T22:21:31.937Z,1.00
2023-10-14T22:25:43.121Z,1.00
2023-10-14T22:29:51.962Z,1.00
2023-10-14T22:34:02.211Z,1.00
2023-10-14T22:38:11.949Z,1.00
2023-10-14T22:42:21.029Z,1.00
2023-10-14T22:46:31.314Z,1.00
2023-10-14T22:50:39.974Z,1.00
2023-10-14T22:54:49.886Z,1.00
2023-10-14T22:58:59.819Z,1.00
2023-10-14T23:03:10.121Z,1.00
2023-10-14T23:07:20.738Z,1.00
2023-10-14T23:11:29.524Z,1.00
2023-10-14T23:15:40.236Z,1.00
2023-10-14T23:19:49.040Z,1.00
2023-10-14T23:23:57.735Z,1.00
2023-10-14T23:28:08.011Z,1.00
2023-10-14T23:32:16.712Z,1.00
2023-10-14T23:36:26.964Z,1.00
2023-10-14T23:40:35.538Z,1.00
2023-10-14T23:44:49.346Z,1.00
2023-10-14T23:48:57.901Z,1.00
2023-10-14T23:53:07.469Z,1.00
2023-10-14T23:57:16.302Z,1.00
